Time;durP1;ratioP1;P1;durP2;ratioP2;P2;SDS_P1;SDS_P2;PMS_P1;PMS_P2;Temp;Humidity;BMP_temperature;BMP_pressure;BME280_temperature;BME280_humidity;BME280_pressure;Samples;Min_cycle;Max_cycle;Signal;HPM_P1;HPM_P2
2022/04/26 03:38:23;;;;;;;72.13;23.52;;;;;;;;;;4729314;30;20048;-80
2022/04/26 03:40:51;;;;;;;49.83;20.58;;;;;;;;;;4714573;30;20071;-80
2022/04/26 03:43:19;;;;;;;26.15;12.35;;;;;;;;;;4729867;30;20061;-80
2022/04/26 03:45:48;;;;;;;65.43;19.85;;;;;;;;;;4729810;30;20063;-80
2022/04/26 03:48:17;;;;;;;79.25;21.63;;;;;;;;;;4713863;30;20066;-80
2022/04/26 03:50:45;;;;;;;110.90;19.80;;;;;;;;;;4729865;30;20822;-80
2022/04/26 03:53:13;;;;;;;69.43;15.43;;;;;;;;;;4718928;30;20068;-80
2022/04/26 03:55:42;;;;;;;95.63;20.55;;;;;;;;;;4696242;30;20150;-80
2022/04/26 03:58:10;;;;;;;64.53;20.77;;;;;;;;;;4701692;30;20052;-80
2022/04/26 04:00:39;;;;;;;75.53;21.50;;;;;;;;;;4684272;30;20057;-82
2022/04/26 04:03:09;;;;;;;50.38;17.17;;;;;;;;;;4684587;30;20057;-82
2022/04/26 04:05:42;;;;;;;42.72;18.55;;;;;;;;;;4682205;30;20052;-82
2022/04/26 04:08:10;;;;;;;34.72;14.75;;;;;;;;;;4696510;30;20082;-82
2022/04/26 04:10:38;;;;;;;29.48;16.60;;;;;;;;;;4693899;30;20060;-82
2022/04/26 04:13:06;;;;;;;16.80;11.38;;;;;;;;;;4697470;30;20810;-82
2022/04/26 04:15:34;;;;;;;18.95;14.07;;;;;;;;;;4712579;30;20064;-82
2022/04/26 04:18:02;;;;;;;18.88;13.77;;;;;;;;;;4695557;30;20053;-82
2022/04/26 04:20:30;;;;;;;16.75;13.18;;;;;;;;;;4697049;30;20045;-82
2022/04/26 04:22:58;;;;;;;19.88;15.43;;;;;;;;;;4685301;30;20575;-82
2022/04/26 04:25:26;;;;;;;21.05;15.52;;;;;;;;;;4701882;30;20061;-82
2022/04/26 04:27:54;;;;;;;25.52;17.30;;;;;;;;;;4673653;30;20068;-82
2022/04/26 04:30:22;;;;;;;23.45;15.00;;;;;;;;;;4698683;30;20057;-82
2022/04/26 04:32:50;;;;;;;26.77;16.00;;;;;;;;;;4702955;30;20048;-80
2022/04/26 04:35:18;;;;;;;70.28;20.90;;;;;;;;;;4728791;30;20084;-80
2022/04/26 04:37:49;;;;;;;19.73;15.25;;;;;;;;;;4695647;30;20056;-80
2022/04/26 04:40:17;;;;;;;74.35;17.08;;;;;;;;;;4679390;30;20072;-80
2022/04/26 04:42:45;;;;;;;30.05;15.40;;;;;;;;;;4690848;30;20064;-80
2022/04/26 04:45:14;;;;;;;19.17;11.80;;;;;;;;;;4698806;30;20504;-80
2022/04/26 04:47:42;;;;;;;21.00;12.80;;;;;;;;;;4697985;30;20499;-80
2022/04/26 04:50:12;;;;;;;24.27;18.23;;;;;;;;;;4729016;30;20053;-80
2022/04/26 04:52:45;;;;;;;27.58;18.15;;;;;;;;;;4698222;30;20738;-80
2022/04/26 04:55:13;;;;;;;89.43;24.38;;;;;;;;;;4708932;30;20580;-80
2022/04/26 04:57:41;;;;;;;33.72;18.27;;;;;;;;;;4695162;30;20763;-83
2022/04/26 05:00:10;;;;;;;41.63;19.75;;;;;;;;;;4696017;30;20436;-85
2022/04/26 05:02:38;;;;;;;42.75;21.13;;;;;;;;;;4688467;30;20421;-82
2022/04/26 05:05:06;;;;;;;84.53;27.27;;;;;;;;;;4696357;30;20077;-85
2022/04/26 05:07:34;;;;;;;32.20;17.80;;;;;;;;;;4680876;30;20057;-82
2022/04/26 05:10:07;;;;;;;42.83;18.70;;;;;;;;;;4694932;30;20053;-82
2022/04/26 05:12:35;;;;;;;96.90;28.00;;;;;;;;;;4695785;30;20424;-81
2022/04/26 05:15:04;;;;;;;77.05;18.80;;;;;;;;;;4692562;30;20067;-80
2022/04/26 05:17:32;;;;;;;144.50;30.13;;;;;;;;;;4665801;30;20064;-83
2022/04/26 05:20:01;;;;;;;49.80;19.48;;;;;;;;;;4692272;30;20060;-80
2022/04/26 05:22:29;;;;;;;37.38;19.80;;;;;;;;;;4683913;30;20423;-81
2022/04/26 05:24:57;;;;;;;36.38;17.02;;;;;;;;;;4692828;30;20052;-81
2022/04/26 05:27:29;;;;;;;33.05;14.82;;;;;;;;;;4698086;30;20076;-86
2022/04/26 05:29:57;;;;;;;62.03;22.85;;;;;;;;;;4680814;30;20052;-79
2022/04/26 05:32:28;;;;;;;79.78;19.85;;;;;;;;;;4711195;30;20500;-80
2022/04/26 05:34:57;;;;;;;55.78;22.30;;;;;;;;;;4695223;30;20065;-80
2022/04/26 05:37:26;;;;;;;82.80;24.88;;;;;;;;;;4694000;30;20570;-81
2022/04/26 05:39:55;;;;;;;49.33;20.77;;;;;;;;;;4689828;30;20065;-80
2022/04/26 05:42:24;;;;;;;55.13;17.45;;;;;;;;;;4693505;30;20618;-80
2022/04/26 05:44:52;;;;;;;39.60;19.88;;;;;;;;;;4677818;30;20068;-80
2022/04/26 05:47:20;;;;;;;74.28;22.05;;;;;;;;;;4677191;30;20062;-80
2022/04/26 05:49:48;;;;;;;72.53;23.45;;;;;;;;;;4691245;30;20081;-80
2022/04/26 05:52:16;;;;;;;55.50;19.35;;;;;;;;;;4663251;30;20057;-80
2022/04/26 05:54:44;;;;;;;68.97;18.88;;;;;;;;;;4676665;30;20496;-79
2022/04/26 05:57:13;;;;;;;45.15;19.88;;;;;;;;;;4681001;30;20084;-80
2022/04/26 05:59:41;;;;;;;33.00;17.70;;;;;;;;;;4679892;30;20056;-80
2022/04/26 06:02:09;;;;;;;104.05;27.58;;;;;;;;;;4710315;30;20056;-80
2022/04/26 06:04:38;;;;;;;93.07;27.52;;;;;;;;;;4710882;30;20049;-80
2022/04/26 06:07:07;;;;;;;50.78;19.77;;;;;;;;;;4694032;30;20711;-79
2022/04/26 06:09:37;;;;;;;50.83;19.65;;;;;;;;;;4710343;30;20521;-79
2022/04/26 06:12:11;;;;;;;79.20;30.92;;;;;;;;;;4710864;30;20057;-80
2022/04/26 06:14:39;;;;;;;143.63;39.50;;;;;;;;;;4694777;30;20053;-80
2022/04/26 06:17:07;;;;;;;83.30;25.30;;;;;;;;;;4695191;30;20068;-80
2022/04/26 06:19:35;;;;;;;73.72;23.35;;;;;;;;;;4709785;30;20053;-80
2022/04/26 06:22:04;;;;;;;73.32;23.05;;;;;;;;;;4709814;30;20056;-80
2022/04/26 06:24:32;;;;;;;49.75;22.55;;;;;;;;;;4710984;30;20072;-79
2022/04/26 06:27:00;;;;;;;76.68;24.25;;;;;;;;;;4710304;30;20068;-80
2022/04/26 06:29:28;;;;;;;36.28;17.98;;;;;;;;;;4709682;30;20071;-80
2022/04/26 06:31:55;;;;;;;40.38;18.70;;;;;;;;;;4701860;30;20066;-79
2022/04/26 06:34:24;;;;;;;69.95;24.67;;;;;;;;;;4693120;30;20053;-79
2022/04/26 06:36:52;;;;;;;59.28;22.65;;;;;;;;;;4692865;30;20437;-79
2022/04/26 06:39:20;;;;;;;44.05;19.55;;;;;;;;;;4692713;30;20147;-79
2022/04/26 06:41:48;;;;;;;48.95;23.52;;;;;;;;;;4692636;30;20056;-79
2022/04/26 06:44:16;;;;;;;34.05;18.35;;;;;;;;;;4693252;30;20082;-79
2022/04/26 06:46:44;;;;;;;32.60;22.00;;;;;;;;;;4681491;30;20065;-79
2022/04/26 06:49:12;;;;;;;36.53;19.95;;;;;;;;;;4710546;30;20409;-80
2022/04/26 06:51:44;;;;;;;39.38;16.15;;;;;;;;;;4709568;30;20057;-79
2022/04/26 06:54:12;;;;;;;21.58;17.30;;;;;;;;;;4694467;30;20584;-80
2022/04/26 06:56:40;;;;;;;20.67;13.55;;;;;;;;;;4710502;30;20057;-79
2022/04/26 06:59:08;;;;;;;28.38;18.95;;;;;;;;;;4710241;30;20052;-80
2022/04/26 07:01:36;;;;;;;26.88;17.88;;;;;;;;;;4718695;30;20722;-80
2022/04/26 07:04:07;;;;;;;21.83;16.60;;;;;;;;;;4709767;30;20077;-80
2022/04/26 07:06:38;;;;;;;20.95;15.10;;;;;;;;;;4712348;30;20075;-79
2022/04/26 07:09:06;;;;;;;28.05;16.88;;;;;;;;;;4713383;30;20784;-80
2022/04/26 07:11:35;;;;;;;19.52;13.95;;;;;;;;;;4713275;30;20060;-80
2022/04/26 07:14:03;;;;;;;24.38;16.08;;;;;;;;;;4713047;30;20057;-79
2022/04/26 07:16:31;;;;;;;24.80;16.85;;;;;;;;;;4713240;30;20049;-79
2022/04/26 07:19:00;;;;;;;28.08;15.98;;;;;;;;;;4712878;30;20106;-79
2022/04/26 07:21:28;;;;;;;23.05;15.95;;;;;;;;;;4712353;30;20057;-80
2022/04/26 07:24:17;;;;;;;21.60;13.85;;;;;;;;;;4683819;30;20056;-80
2022/04/26 07:26:46;;;;;;;27.00;15.90;;;;;;;;;;4712422;30;20061;-80
2022/04/26 07:29:17;;;;;;;20.88;13.38;;;;;;;;;;4713074;30;20061;-80
2022/04/26 07:31:46;;;;;;;26.60;13.90;;;;;;;;;;4717620;30;20056;-80
2022/04/26 07:34:20;;;;;;;20.52;14.00;;;;;;;;;;4730087;30;20057;-80
2022/04/26 07:36:59;;;;;;;16.52;11.25;;;;;;;;;;4730250;30;20408;-80
2022/04/26 07:39:33;;;;;;;14.88;11.07;;;;;;;;;;4726954;30;20060;-80
2022/04/26 07:42:06;;;;;;;16.73;12.88;;;;;;;;;;4705007;30;20754;-80
2022/04/26 07:44:35;;;;;;;18.88;13.65;;;;;;;;;;4720521;30;20049;-80
2022/04/26 07:47:05;;;;;;;23.27;15.38;;;;;;;;;;4712313;30;20428;-80
2022/04/26 07:49:33;;;;;;;13.52;11.25;;;;;;;;;;4703481;30;20071;-82
2022/04/26 07:52:02;;;;;;;15.40;11.20;;;;;;;;;;4679553;30;20057;-82
2022/04/26 07:54:31;;;;;;;18.23;10.88;;;;;;;;;;4708767;30;20056;-82
2022/04/26 07:56:59;;;;;;;15.45;11.52;;;;;;;;;;4729918;30;20492;-82
2022/04/26 07:59:28;;;;;;;14.70;11.00;;;;;;;;;;4705514;30;20508;-82
2022/04/26 08:01:57;;;;;;;10.40;8.13;;;;;;;;;;4711729;30;20045;-82
2022/04/26 08:04:26;;;;;;;13.73;10.43;;;;;;;;;;4711701;30;20072;-81
2022/04/26 08:06:54;;;;;;;13.43;11.07;;;;;;;;;;4718336;30;20067;-81
2022/04/26 08:09:22;;;;;;;11.60;9.10;;;;;;;;;;4698592;30;20061;-82
2022/04/26 08:11:50;;;;;;;13.43;9.68;;;;;;;;;;4696132;30;20049;-82
2022/04/26 08:14:20;;;;;;;15.15;9.82;;;;;;;;;;4696100;30;20575;-82
2022/04/26 08:16:48;;;;;;;10.43;8.32;;;;;;;;;;4705927;30;20068;-81
2022/04/26 08:19:16;;;;;;;8.57;7.28;;;;;;;;;;4718914;30;20264;-81
2022/04/26 08:21:44;;;;;;;10.98;8.68;;;;;;;;;;4727255;30;20048;-81
2022/04/26 08:29:46;;;;;;;10.50;8.18;;;;;;;;;;4713391;30;20416;-81
2022/04/26 08:32:14;;;;;;;12.20;9.60;;;;;;;;;;4718048;30;20146;-81
2022/04/26 08:34:42;;;;;;;10.40;8.77;;;;;;;;;;4711563;30;20053;-81
2022/04/26 08:37:11;;;;;;;9.38;7.38;;;;;;;;;;4711806;30;20068;-81
2022/04/26 08:39:39;;;;;;;9.57;8.55;;;;;;;;;;4695443;30;20528;-81
2022/04/26 08:42:07;;;;;;;8.80;6.40;;;;;;;;;;4711428;30;20420;-81
2022/04/26 08:44:40;;;;;;;7.75;5.82;;;;;;;;;;4695928;30;20064;-81
2022/04/26 08:52:50;;;;;;;7.40;5.60;;;;;;;;;;4711342;30;20061;-81
2022/04/26 08:55:19;;;;;;;4.82;4.43;;;;;;;;;;4695637;30;20084;-81
2022/04/26 08:57:48;;;;;;;7.45;5.28;;;;;;;;;;4695363;30;20677;-81
2022/04/26 09:00:16;;;;;;;10.00;6.57;;;;;;;;;;4696403;30;20056;-81
2022/04/26 09:02:59;;;;;;;5.20;4.07;;;;;;;;;;4711098;30;20416;-81
2022/04/26 09:05:27;;;;;;;4.60;3.92;;;;;;;;;;4696542;30;20720;-82
2022/04/26 09:07:55;;;;;;;4.43;4.05;;;;;;;;;;4694935;30;20061;-82
2022/04/26 09:10:23;;;;;;;4.10;3.67;;;;;;;;;;4711153;30;20049;-82
2022/04/26 09:13:20;;;;;;;3.75;3.45;;;;;;;;;;4695871;30;20053;-81
2022/04/26 09:15:55;;;;;;;2.95;2.75;;;;;;;;;;4662395;30;20064;-81
2022/04/26 09:18:30;;;;;;;2.95;2.75;;;;;;;;;;4691733;30;20062;-82
2022/04/26 09:21:08;;;;;;;3.55;3.25;;;;;;;;;;4678562;30;20504;-81
2022/04/26 09:23:38;;;;;;;3.25;2.95;;;;;;;;;;4677018;30;20057;-81
2022/04/26 09:26:10;;;;;;;4.57;4.15;;;;;;;;;;4677977;30;20046;-82
2022/04/26 09:28:40;;;;;;;3.60;3.33;;;;;;;;;;4693698;30;20887;-82
2022/04/26 09:31:18;;;;;;;3.70;2.53;;;;;;;;;;4693252;30;20397;-81
2022/04/26 09:33:51;;;;;;;3.78;3.45;;;;;;;;;;4693657;30;20080;-81
2022/04/26 09:36:21;;;;;;;4.70;3.42;;;;;;;;;;4692180;30;20485;-82
2022/04/26 09:38:50;;;;;;;4.60;3.78;;;;;;;;;;4691830;30;20050;-81
2022/04/26 09:41:18;;;;;;;5.70;3.85;;;;;;;;;;4699571;30;20061;-81
2022/04/26 09:43:58;;;;;;;3.97;3.05;;;;;;;;;;4728104;30;20048;-81
2022/04/26 09:46:28;;;;;;;5.40;3.17;;;;;;;;;;4712316;30;20044;-82
2022/04/26 09:48:56;;;;;;;3.35;2.88;;;;;;;;;;4722233;30;20060;-82
2022/04/26 09:51:24;;;;;;;3.30;3.00;;;;;;;;;;4709839;30;20049;-83
2022/04/26 09:53:52;;;;;;;40.88;5.20;;;;;;;;;;4710493;30;20433;-82
2022/04/26 09:56:24;;;;;;;4.10;2.00;;;;;;;;;;4680942;30;20606;-82
2022/04/26 09:58:55;;;;;;;3.35;2.95;;;;;;;;;;4709081;30;20053;-82
2022/04/26 10:01:27;;;;;;;3.43;2.63;;;;;;;;;;4709014;30;20061;-82
2022/04/26 10:04:02;;;;;;;3.58;2.47;;;;;;;;;;4680892;30;20318;-82
2022/04/26 10:06:38;;;;;;;2.38;2.17;;;;;;;;;;4674263;30;20420;-82
2022/04/26 10:09:07;;;;;;;2.05;1.95;;;;;;;;;;4709657;30;20567;-83
2022/04/26 10:11:35;;;;;;;2.75;2.55;;;;;;;;;;4710614;30;20505;-83
2022/04/26 10:14:05;;;;;;;2.90;2.70;;;;;;;;;;4694909;30;20060;-83
2022/04/26 10:16:35;;;;;;;1.67;1.58;;;;;;;;;;4708947;30;20065;-82
2022/04/26 10:19:08;;;;;;;2.55;2.03;;;;;;;;;;4710167;30;20052;-82
2022/04/26 10:21:39;;;;;;;1.83;1.73;;;;;;;;;;4710018;30;20057;-82
2022/04/26 10:24:11;;;;;;;3.20;2.38;;;;;;;;;;4695177;30;20407;-82
2022/04/26 10:26:39;;;;;;;3.30;3.00;;;;;;;;;;4694583;30;20065;-82
2022/04/26 10:29:07;;;;;;;4.30;2.58;;;;;;;;;;4709348;30;20057;-82
2022/04/26 10:31:36;;;;;;;3.65;2.50;;;;;;;;;;4710026;30;20057;-82
2022/04/26 10:34:27;;;;;;;2.60;2.40;;;;;;;;;;4710233;30;20064;-83
2022/04/26 10:36:59;;;;;;;1.92;1.83;;;;;;;;;;4683237;30;20508;-82
2022/04/26 10:39:31;;;;;;;2.75;2.47;;;;;;;;;;4713213;30;20057;-83
2022/04/26 10:42:01;;;;;;;2.10;1.88;;;;;;;;;;4713700;30;20617;-84
2022/04/26 10:44:31;;;;;;;2.00;1.80;;;;;;;;;;4712805;30;20068;-82
2022/04/26 10:47:02;;;;;;;1.80;1.70;;;;;;;;;;4711996;30;20053;-82
2022/04/26 10:49:35;;;;;;;2.25;2.05;;;;;;;;;;4697711;30;20061;-82
2022/04/26 10:52:22;;;;;;;1.63;1.50;;;;;;;;;;4713362;30;20649;-82
2022/04/26 10:54:58;;;;;;;2.22;1.95;;;;;;;;;;4713555;30;20061;-82
2022/04/26 10:57:28;;;;;;;1.92;1.50;;;;;;;;;;4712251;30;20063;-84
2022/04/26 11:00:21;;;;;;;1.67;1.58;;;;;;;;;;4697569;30;20064;-85
2022/04/26 11:02:53;;;;;;;2.70;2.05;;;;;;;;;;4698897;30;20057;-84
2022/04/26 11:05:26;;;;;;;2.00;1.55;;;;;;;;;;4712996;30;20053;-82
2022/04/26 11:07:55;;;;;;;2.80;2.60;;;;;;;;;;4712861;30;20057;-84
2022/04/26 11:10:24;;;;;;;3.28;2.35;;;;;;;;;;4712977;30;20056;-86
2022/04/26 11:12:52;;;;;;;2.42;2.20;;;;;;;;;;4713456;30;20076;-84
2022/04/26 11:15:22;;;;;;;2.05;1.85;;;;;;;;;;4701255;30;20496;-83
2022/04/26 11:17:51;;;;;;;3.58;2.88;;;;;;;;;;4693953;30;20573;-84
2022/04/26 11:20:24;;;;;;;4.03;2.50;;;;;;;;;;4694881;30;20600;-84
2022/04/26 11:22:53;;;;;;;3.70;2.83;;;;;;;;;;4680614;30;20402;-83
2022/04/26 11:28:27;;;;;;;3.97;3.00;;;;;;;;;;4644108;30;20066;-85
2022/04/26 11:30:57;;;;;;;2.42;2.22;;;;;;;;;;4688158;30;20049;-84
2022/04/26 11:33:28;;;;;;;2.08;1.85;;;;;;;;;;4690411;30;20061;-84
2022/04/26 11:35:56;;;;;;;2.72;2.47;;;;;;;;;;4685325;30;20052;-82
2022/04/26 11:38:25;;;;;;;2.83;2.03;;;;;;;;;;4719718;30;20045;-85
2022/04/26 11:40:54;;;;;;;3.15;2.85;;;;;;;;;;4696646;30;20441;-83
2022/04/26 11:43:24;;;;;;;3.80;3.45;;;;;;;;;;4696771;30;20095;-85
2022/04/26 11:45:52;;;;;;;1.60;1.50;;;;;;;;;;4712252;30;20057;-82
2022/04/26 11:48:24;;;;;;;1.55;1.40;;;;;;;;;;4715590;30;20060;-85
2022/04/26 11:50:53;;;;;;;7.28;2.85;;;;;;;;;;4711360;30;20696;-85
2022/04/26 11:53:23;;;;;;;7.93;2.97;;;;;;;;;;4678391;30;20049;-81
2022/04/26 11:55:55;;;;;;;4.00;2.47;;;;;;;;;;4694489;30;20065;-85
2022/04/26 11:58:32;;;;;;;2.08;1.98;;;;;;;;;;4694342;30;20090;-83
2022/04/26 12:01:03;;;;;;;2.42;1.85;;;;;;;;;;4689822;30;20486;-84
2022/04/26 12:03:36;;;;;;;2.42;2.08;;;;;;;;;;4711924;30;20059;-81
2022/04/26 12:06:05;;;;;;;1.40;1.20;;;;;;;;;;4712084;30;20064;-81
2022/04/26 12:08:35;;;;;;;1.48;1.35;;;;;;;;;;4709357;30;20036;-90
2022/04/26 12:11:16;;;;;;;2.17;1.98;;;;;;;;;;4688043;30;20052;-86
2022/04/26 12:13:45;;;;;;;2.85;2.58;;;;;;;;;;4695220;30;20053;-81
2022/04/26 12:16:14;;;;;;;1.63;1.38;;;;;;;;;;4699409;30;20061;-84
2022/04/26 12:18:55;;;;;;;3.78;1.63;;;;;;;;;;4712188;30;20057;-83
2022/04/26 12:21:26;;;;;;;2.88;2.65;;;;;;;;;;4695711;30;20417;-83
2022/04/26 12:24:11;;;;;;;2.40;2.20;;;;;;;;;;4682949;30;20061;-87
2022/04/26 12:26:52;;;;;;;2.58;2.35;;;;;;;;;;4712248;30;20064;-85
2022/04/26 12:29:22;;;;;;;4.22;2.53;;;;;;;;;;4711564;30;20053;-83
2022/04/26 12:31:51;;;;;;;2.45;2.08;;;;;;;;;;4712055;30;20065;-82
2022/04/26 12:34:24;;;;;;;3.22;1.83;;;;;;;;;;4711726;30;20045;-82
2022/04/26 12:36:53;;;;;;;2.20;1.63;;;;;;;;;;4696018;30;20084;-84
2022/04/26 12:39:22;;;;;;;5.32;3.38;;;;;;;;;;4696341;30;20053;-84
2022/04/26 12:41:51;;;;;;;2.67;2.33;;;;;;;;;;4710789;30;20049;-82
2022/04/26 12:44:19;;;;;;;2.97;2.78;;;;;;;;;;4681997;30;20057;-86
2022/04/26 12:50:27;;;;;;;2.67;2.47;;;;;;;;;;4706987;30;20060;-87
2022/04/26 12:53:04;;;;;;;4.65;4.10;;;;;;;;;;4688320;30;20063;-83
2022/04/26 12:55:41;;;;;;;2.40;1.90;;;;;;;;;;4697251;30;20078;-85
2022/04/26 12:58:12;;;;;;;3.28;2.97;;;;;;;;;;4691387;30;20049;-84
2022/04/26 13:00:41;;;;;;;2.67;2.38;;;;;;;;;;4683972;30;20408;-80
2022/04/26 13:03:11;;;;;;;4.68;4.22;;;;;;;;;;4695980;30;20414;-79
2022/04/26 13:05:41;;;;;;;;;;;;;;;;;;4714523;30;20057;-80
2022/04/26 13:08:10;;;;;;;3.00;2.58;;;;;;;;;;4686152;30;19934;-84
2022/04/26 13:10:48;;;;;;;2.83;2.47;;;;;;;;;;4680810;30;20060;-82
2022/04/26 13:13:17;;;;;;;4.18;2.65;;;;;;;;;;4701676;30;20500;-82
2022/04/26 13:15:45;;;;;;;2.90;1.95;;;;;;;;;;4692945;30;20053;-83
2022/04/26 13:18:15;;;;;;;3.33;2.08;;;;;;;;;;4680622;30;20053;-86
2022/04/26 13:20:45;;;;;;;2.83;2.63;;;;;;;;;;4690488;30;20089;-86
2022/04/26 13:23:14;;;;;;;3.35;2.92;;;;;;;;;;4693831;30;20064;-81
2022/04/26 13:25:46;;;;;;;3.53;2.70;;;;;;;;;;4697466;30;20053;-83
2022/04/26 13:28:14;;;;;;;3.05;2.83;;;;;;;;;;4680763;30;20806;-84
2022/04/26 13:30:43;;;;;;;3.33;2.30;;;;;;;;;;4702583;30;20050;-81
2022/04/26 13:33:11;;;;;;;2.70;2.50;;;;;;;;;;4679421;30;20053;-85
2022/04/26 13:36:07;;;;;;;6.95;2.78;;;;;;;;;;4684725;30;20053;-86
2022/04/26 13:38:40;;;;;;;8.77;3.80;;;;;;;;;;4694241;30;20810;-82
2022/04/26 13:41:09;;;;;;;7.00;2.72;;;;;;;;;;4681733;30;20071;-86
2022/04/26 13:43:41;;;;;;;3.58;2.80;;;;;;;;;;4680883;30;20049;-85
2022/04/26 13:46:16;;;;;;;2.47;2.30;;;;;;;;;;4692612;30;20053;-89
2022/04/26 13:48:45;;;;;;;2.00;1.85;;;;;;;;;;4681142;30;20057;-89
2022/04/26 13:51:14;;;;;;;2.90;2.10;;;;;;;;;;4694719;30;20769;-87
2022/04/26 13:53:41;;;;;;;5.38;3.92;;;;;;;;;;4677023;30;20050;-87
2022/04/26 13:56:10;;;;;;;2.17;1.98;;;;;;;;;;4678550;30;20064;-85
2022/04/26 13:58:38;;;;;;;1.95;1.85;;;;;;;;;;4666954;30;20547;-87
2022/04/26 14:01:06;;;;;;;2.70;2.15;;;;;;;;;;4697159;30;20054;-86
2022/04/26 14:03:34;;;;;;;1.77;1.67;;;;;;;;;;4693623;30;20077;-89
2022/04/26 14:06:03;;;;;;;4.25;1.77;;;;;;;;;;4701299;30;20053;-85
2022/04/26 14:08:31;;;;;;;1.65;1.55;;;;;;;;;;4706832;30;20062;-88
2022/04/26 14:10:59;;;;;;;1.45;1.35;;;;;;;;;;4681882;30;20053;-88
2022/04/26 14:13:27;;;;;;;1.98;1.88;;;;;;;;;;4660699;30;20054;-87
2022/04/26 14:21:48;;;;;;;1.40;1.30;;;;;;;;;;4682143;30;20077;-87
2022/04/26 14:24:17;;;;;;;1.20;1.10;;;;;;;;;;4680706;30;20061;-89
2022/04/26 14:26:45;;;;;;;1.60;1.50;;;;;;;;;;4698985;30;20057;-86
2022/04/26 14:29:13;;;;;;;1.48;1.38;;;;;;;;;;4713664;30;20053;-87
2022/04/26 14:31:45;;;;;;;0.80;0.80;;;;;;;;;;4676563;30;20428;-88
2022/04/26 14:34:15;;;;;;;1.80;1.25;;;;;;;;;;4681260;30;20508;-87
2022/04/26 14:36:44;;;;;;;0.90;0.90;;;;;;;;;;4683194;30;20073;-85
2022/04/26 14:39:23;;;;;;;2.05;0.98;;;;;;;;;;4699229;30;20142;-86
2022/04/26 14:41:51;;;;;;;1.08;0.98;;;;;;;;;;4682820;30;20045;-85
2022/04/26 14:44:20;;;;;;;1.38;1.27;;;;;;;;;;4681479;30;20065;-88
2022/04/26 14:46:48;;;;;;;1.33;1.30;;;;;;;;;;4696258;30;20057;-87
2022/04/26 14:49:16;;;;;;;1.10;1.00;;;;;;;;;;4686057;30;20076;-87
2022/04/26 14:51:46;;;;;;;1.50;1.40;;;;;;;;;;4683066;30;20057;-87
2022/04/26 14:54:14;;;;;;;1.20;1.10;;;;;;;;;;4683611;30;20045;-87
2022/04/26 14:56:44;;;;;;;1.42;1.17;;;;;;;;;;4695602;30;20060;-87
2022/04/26 14:59:17;;;;;;;4.20;1.20;;;;;;;;;;4695302;30;20508;-85
2022/04/26 15:01:51;;;;;;;0.93;0.93;;;;;;;;;;4673055;30;20523;-86
2022/04/26 15:04:20;;;;;;;0.95;0.95;;;;;;;;;;4680489;30;20065;-85
2022/04/26 15:06:50;;;;;;;1.73;1.63;;;;;;;;;;4710082;30;20531;-85
2022/04/26 15:17:41;;;;;;;0.90;0.90;;;;;;;;;;4679819;30;20078;-86
2022/04/26 15:20:13;;;;;;;2.60;1.17;;;;;;;;;;4681503;30;20083;-87
2022/04/26 15:22:46;;;;;;;1.30;1.20;;;;;;;;;;4678076;30;20476;-87
2022/04/26 15:25:15;;;;;;;1.00;1.00;;;;;;;;;;4673830;30;20061;-86
2022/04/26 15:27:44;;;;;;;1.17;1.17;;;;;;;;;;4707115;30;20068;-86
2022/04/26 15:30:13;;;;;;;1.42;1.33;;;;;;;;;;4697597;30;20053;-87
2022/04/26 15:32:42;;;;;;;1.73;1.63;;;;;;;;;;4669541;30;20072;-86
2022/04/26 15:35:11;;;;;;;3.03;2.65;;;;;;;;;;4679526;30;20057;-86
2022/04/26 15:37:48;;;;;;;1.73;1.42;;;;;;;;;;4672931;30;20512;-87
2022/04/26 15:40:31;;;;;;;2.20;1.65;;;;;;;;;;4698458;30;20049;-87
2022/04/26 15:43:00;;;;;;;1.73;1.63;;;;;;;;;;4683141;30;20052;-86
2022/04/26 15:45:29;;;;;;;2.15;1.95;;;;;;;;;;4695904;30;20064;-85
2022/04/26 15:47:58;;;;;;;1.70;1.60;;;;;;;;;;4696776;30;20512;-86
2022/04/26 15:50:26;;;;;;;2.00;1.80;;;;;;;;;;4696851;30;20049;-88
2022/04/26 15:52:57;;;;;;;1.77;1.67;;;;;;;;;;4681210;30;20068;-86
2022/04/26 15:55:40;;;;;;;2.67;1.95;;;;;;;;;;4692875;30;20057;-85
2022/04/26 15:58:22;;;;;;;2.05;1.55;;;;;;;;;;4684692;30;20053;-85
2022/04/26 16:00:53;;;;;;;2.40;2.28;;;;;;;;;;4676387;30;20076;-85
2022/04/26 16:03:23;;;;;;;2.25;2.03;;;;;;;;;;4696078;30;20049;-86
2022/04/26 16:06:00;;;;;;;2.30;1.67;;;;;;;;;;4708622;30;20045;-85
2022/04/26 16:08:35;;;;;;;2.53;2.15;;;;;;;;;;4684116;30;20053;-86
2022/04/26 16:22:22;;;;;;;2.40;2.17;;;;;;;;;;4677470;30;20063;-86
2022/04/26 16:24:50;;;;;;;2.72;2.25;;;;;;;;;;4673338;30;20080;-85
2022/04/26 16:27:18;;;;;;;2.05;1.95;;;;;;;;;;4693716;30;20053;-88
2022/04/26 16:29:46;;;;;;;3.17;2.67;;;;;;;;;;4681913;30;20064;-86
2022/04/26 16:32:14;;;;;;;3.30;3.05;;;;;;;;;;4708626;30;20068;-86
2022/04/26 16:34:42;;;;;;;4.25;3.30;;;;;;;;;;4696447;30;20064;-87
2022/04/26 16:37:10;;;;;;;3.03;2.67;;;;;;;;;;4690863;30;20065;-82
2022/04/26 16:39:38;;;;;;;4.43;2.58;;;;;;;;;;4706140;30;20547;-82
2022/04/26 16:42:07;;;;;;;2.80;2.58;;;;;;;;;;4689459;30;20053;-83
2022/04/26 16:44:35;;;;;;;4.15;3.45;;;;;;;;;;4674028;30;20064;-82
2022/04/26 16:47:05;;;;;;;3.03;2.72;;;;;;;;;;4694426;30;20069;-82
2022/04/26 16:49:37;;;;;;;2.95;2.75;;;;;;;;;;4673359;30;20061;-83
2022/04/26 16:52:05;;;;;;;3.47;3.17;;;;;;;;;;4667511;30;20579;-82
2022/04/26 16:54:33;;;;;;;6.03;4.30;;;;;;;;;;4681293;30;20491;-83
2022/04/26 16:57:02;;;;;;;3.55;2.70;;;;;;;;;;4696332;30;20061;-85
2022/04/26 16:59:30;;;;;;;2.92;2.67;;;;;;;;;;4681549;30;20554;-84
2022/04/26 17:01:58;;;;;;;6.95;4.82;;;;;;;;;;4684505;30;20155;-84
2022/04/26 17:04:27;;;;;;;4.00;3.03;;;;;;;;;;4712074;30;20060;-83
2022/04/26 17:06:58;;;;;;;3.67;3.38;;;;;;;;;;4695411;30;20858;-84
2022/04/26 17:09:30;;;;;;;4.07;3.78;;;;;;;;;;4681340;30;20060;-83
2022/04/26 17:11:58;;;;;;;3.10;2.53;;;;;;;;;;4682287;30;20504;-83
2022/04/26 17:14:26;;;;;;;5.20;2.67;;;;;;;;;;4696310;30;20500;-83
2022/04/26 17:16:54;;;;;;;3.83;3.53;;;;;;;;;;4672154;30;20053;-82
2022/04/26 17:19:22;;;;;;;3.50;3.03;;;;;;;;;;4697572;30;20057;-82
2022/04/26 17:21:51;;;;;;;3.03;2.47;;;;;;;;;;4724643;30;20384;-83
2022/04/26 17:27:06;;;;;;;3.67;3.38;;;;;;;;;;4695173;30;20061;-82
2022/04/26 17:29:35;;;;;;;5.18;4.38;;;;;;;;;;4675282;30;20057;-83
2022/04/26 17:32:04;;;;;;;3.63;2.70;;;;;;;;;;4678761;30;20053;-84
2022/04/26 17:34:32;;;;;;;3.85;3.13;;;;;;;;;;4693662;30;20814;-84
2022/04/26 17:37:00;;;;;;;3.40;2.78;;;;;;;;;;4713269;30;20067;-82
2022/04/26 17:39:37;;;;;;;3.92;3.47;;;;;;;;;;4698255;30;20064;-81
2022/04/26 17:42:06;;;;;;;4.85;3.13;;;;;;;;;;4686331;30;20049;-81
2022/04/26 17:44:35;;;;;;;2.97;2.78;;;;;;;;;;4681443;30;20053;-82
2022/04/26 17:47:06;;;;;;;3.20;2.95;;;;;;;;;;4694652;30;20049;-82
2022/04/26 17:49:54;;;;;;;11.43;2.85;;;;;;;;;;4695157;30;20057;-82
2022/04/26 17:52:23;;;;;;;3.75;3.35;;;;;;;;;;4711177;30;20461;-83
2022/04/26 17:57:39;;;;;;;4.15;3.50;;;;;;;;;;4692163;30;20057;-83
2022/04/26 18:00:11;;;;;;;3.15;2.95;;;;;;;;;;4695566;30;20061;-81
2022/04/26 18:02:40;;;;;;;4.88;3.42;;;;;;;;;;4680893;30;20621;-81
2022/04/26 18:05:09;;;;;;;4.45;4.05;;;;;;;;;;4710906;30;20067;-81
2022/04/26 18:07:37;;;;;;;3.22;3.03;;;;;;;;;;4694133;30;20432;-81
2022/04/26 18:10:08;;;;;;;3.47;3.10;;;;;;;;;;4694870;30;20057;-82
2022/04/26 18:12:40;;;;;;;4.05;3.63;;;;;;;;;;4681552;30;20109;-82
2022/04/26 18:15:08;;;;;;;4.05;3.75;;;;;;;;;;4674714;30;20042;-81
2022/04/26 18:17:37;;;;;;;3.72;3.22;;;;;;;;;;4684214;30;20495;-81
2022/04/26 18:20:05;;;;;;;3.78;3.42;;;;;;;;;;4650169;30;20070;-80
2022/04/26 18:22:33;;;;;;;3.60;3.30;;;;;;;;;;4679579;30;20070;-82
2022/04/26 18:25:02;;;;;;;4.30;3.25;;;;;;;;;;4678180;30;20444;-80
2022/04/26 18:27:30;;;;;;;4.05;3.65;;;;;;;;;;4699069;30;20060;-81
2022/04/26 18:29:58;;;;;;;3.90;3.10;;;;;;;;;;4694920;30;20074;-81
2022/04/26 18:32:26;;;;;;;6.18;4.35;;;;;;;;;;4706924;30;20064;-82
2022/04/26 18:34:54;;;;;;;5.53;4.78;;;;;;;;;;4712141;30;20057;-81
2022/04/26 18:37:23;;;;;;;4.50;4.10;;;;;;;;;;4727782;30;20056;-80
2022/04/26 18:39:54;;;;;;;;;;;;;;;;;;4699519;30;20064;-82
2022/04/26 18:42:22;;;;;;;2.85;2.65;;;;;;;;;;4682798;30;19948;-81
2022/04/26 18:44:50;;;;;;;3.95;3.60;;;;;;;;;;4693812;30;20066;-82
2022/04/26 18:47:23;;;;;;;8.68;5.45;;;;;;;;;;4678156;30;20068;-83
2022/04/26 18:49:56;;;;;;;78.43;13.50;;;;;;;;;;4716107;30;20060;-83
2022/04/26 18:52:33;;;;;;;55.63;10.38;;;;;;;;;;4679127;30;20079;-84
2022/04/26 18:55:01;;;;;;;3.30;2.63;;;;;;;;;;4681137;30;20060;-85
2022/04/26 18:57:31;;;;;;;52.30;11.40;;;;;;;;;;4681351;30;20058;-85
2022/04/26 18:59:59;;;;;;;3.60;3.30;;;;;;;;;;4694577;30;20049;-80
2022/04/26 19:02:27;;;;;;;74.63;14.32;;;;;;;;;;4708836;30;20059;-81
2022/04/26 19:04:55;;;;;;;3.55;2.75;;;;;;;;;;4712942;30;20061;-81
2022/04/26 19:07:23;;;;;;;4.32;3.85;;;;;;;;;;4697167;30;20056;-80
2022/04/26 19:12:42;;;;;;;4.97;3.78;;;;;;;;;;4683750;30;20068;-81
2022/04/26 19:15:10;;;;;;;4.60;4.07;;;;;;;;;;4678221;30;20062;-81
2022/04/26 19:17:40;;;;;;;3.00;2.78;;;;;;;;;;4680202;30;21484;-81
2022/04/26 19:20:09;;;;;;;4.13;3.80;;;;;;;;;;4680297;30;20066;-80
2022/04/26 19:22:38;;;;;;;4.70;4.05;;;;;;;;;;4680473;30;20469;-80